Time;durP1;ratioP1;P1;durP2;ratioP2;P2;SDS_P1;SDS_P2;PMS_P1;PMS_P2;Temp;Humidity;BMP_temperature;BMP_pressure;BME280_temperature;BME280_humidity;BME280_pressure;Samples;Min_cycle;Max_cycle;Signal;HPM_P1;HPM_P2
2023/04/17 00:00:00;;;;;;;39.60;21.23;;;;;;;-146.27;100.00;83905.13;5093254;28;20020;-64
2023/04/17 00:02:25;;;;;;;41.00;21.48;;;;;;;-146.27;100.00;83939.31;5091050;28;20356;-66
2023/04/17 00:04:51;;;;;;;47.03;21.17;;;;;;;-146.27;100.00;83895.09;5091871;28;20030;-65
2023/04/17 00:07:21;;;;;;;42.85;21.67;;;;;;;-146.27;100.00;83905.13;5093870;28;20079;-66
2023/04/17 00:09:46;;;;;;;39.60;19.95;;;;;;;-146.27;100.00;83935.28;5084751;28;20031;-65
2023/04/17 00:12:12;;;;;;;42.72;20.58;;;;;;;-146.27;100.00;83931.25;5086600;28;20032;-66
2023/04/17 00:14:37;;;;;;;45.80;20.85;;;;;;;-146.27;100.00;83957.38;5083867;28;20063;-66
2023/04/17 00:17:02;;;;;;;40.03;21.23;;;;;;;-146.27;100.00;83903.13;5093878;28;20055;-64
2023/04/17 00:19:28;;;;;;;45.65;21.23;;;;;;;-146.27;100.00;83927.25;5092825;28;20031;-65
2023/04/17 00:21:53;;;;;;;45.00;21.23;;;;;;;-146.27;100.00;83915.19;5093212;28;20063;-66
2023/04/17 00:24:18;;;;;;;48.40;21.60;;;;;;;-146.27;100.00;83919.19;5086782;28;20017;-63
2023/04/17 00:26:44;;;;;;;45.53;21.35;;;;;;;-146.27;100.00;83911.16;5084760;28;20374;-65
2023/04/17 00:29:09;;;;;;;42.05;21.20;;;;;;;-146.27;100.00;83957.38;5079091;28;20275;-65
2023/04/17 00:31:35;;;;;;;43.28;21.48;;;;;;;-146.27;100.00;83935.28;5084783;28;20035;-65
2023/04/17 00:34:00;;;;;;;48.60;22.10;;;;;;;-146.27;100.00;83953.38;5085938;28;20101;-64
2023/04/17 00:36:26;;;;;;;48.40;21.67;;;;;;;-146.27;100.00;83945.31;5084691;28;20066;-64
2023/04/17 00:38:51;;;;;;;50.10;22.23;;;;;;;-146.27;100.00;83943.31;5092715;28;20039;-65
2023/04/17 00:41:17;;;;;;;45.28;23.20;;;;;;;-146.27;100.00;83961.41;5091828;28;20024;-64
2023/04/17 00:43:42;;;;;;;43.08;22.33;;;;;;;-146.27;100.00;83969.44;5093523;28;20039;-66
2023/04/17 00:46:08;;;;;;;49.03;22.23;;;;;;;-146.27;100.00;83939.31;5088456;28;20362;-64
2023/04/17 00:48:36;;;;;;;53.95;23.50;;;;;;;-146.27;100.00;83971.47;5093161;28;20122;-64
2023/04/17 00:51:02;;;;;;;51.40;22.63;;;;;;;-146.27;100.00;83935.28;5089771;28;20024;-65
2023/04/17 00:53:31;;;;;;;50.88;24.23;;;;;;;-146.27;100.00;83927.25;5086653;28;20490;-65
2023/04/17 00:55:57;;;;;;;58.90;23.17;;;;;;;-146.27;100.00;83983.50;5085986;28;20043;-65
2023/04/17 00:58:23;;;;;;;54.45;22.75;;;;;;;-146.27;100.00;83977.47;5090630;28;20028;-65
2023/04/17 01:00:48;;;;;;;52.40;22.95;;;;;;;-146.27;100.00;83983.50;5087100;28;20016;-64
2023/04/17 01:03:15;;;;;;;47.75;24.05;;;;;;;-146.27;100.00;83971.47;5078989;28;20023;-66
2023/04/17 01:05:43;;;;;;;51.90;22.88;;;;;;;-146.27;100.00;83947.34;5083950;28;20107;-65
2023/04/17 01:08:09;;;;;;;48.50;23.77;;;;;;;-146.27;100.00;83991.56;5083474;28;20044;-66
2023/04/17 01:10:34;;;;;;;56.75;24.20;;;;;;;-146.27;100.00;83971.47;5088164;28;20035;-65
2023/04/17 01:13:05;;;;;;;56.80;25.25;;;;;;;-146.27;100.00;83957.38;5092562;28;20020;-64
2023/04/17 01:15:31;;;;;;;54.00;23.90;;;;;;;-146.27;100.00;83979.50;5090597;28;20032;-66
2023/04/17 01:17:57;;;;;;;58.60;24.67;;;;;;;-146.27;100.00;83963.41;5090634;28;20171;-65
2023/04/17 01:20:24;;;;;;;56.83;25.27;;;;;;;-146.27;100.00;83989.53;5083612;28;20090;-66
2023/04/17 01:22:50;;;;;;;56.10;23.52;;;;;;;-146.27;100.00;83987.53;5083667;28;20024;-65
2023/04/17 01:25:15;;;;;;;62.53;24.00;;;;;;;-146.27;100.00;84003.59;5088768;28;20020;-65
2023/04/17 01:27:40;;;;;;;52.55;23.50;;;;;;;-146.27;100.00;84049.84;5086733;28;20034;-65
2023/04/17 01:30:07;;;;;;;61.67;23.60;;;;;;;-146.27;100.00;84017.69;5080344;28;20034;-65
2023/04/17 01:32:32;;;;;;;55.03;23.33;;;;;;;-146.27;100.00;84015.66;5087303;28;20028;-65
2023/04/17 01:34:58;;;;;;;48.42;22.70;;;;;;;-146.27;100.00;84005.63;5091926;28;20081;-65
2023/04/17 01:37:24;;;;;;;56.30;24.23;;;;;;;-146.27;100.00;84021.69;5087340;28;20115;-65
2023/04/17 01:39:49;;;;;;;53.10;22.63;;;;;;;-146.27;100.00;83999.59;5091074;28;20106;-64
2023/04/17 01:42:14;;;;;;;45.55;21.60;;;;;;;-146.27;100.00;84011.66;5081738;28;20059;-65
2023/04/17 01:44:40;;;;;;;48.83;22.60;;;;;;;-146.27;100.00;84015.66;5089441;28;20054;-65
2023/04/17 01:47:05;;;;;;;49.33;23.40;;;;;;;-146.27;100.00;84039.78;5091140;28;20077;-66
2023/04/17 01:49:31;;;;;;;45.58;22.45;;;;;;;-146.27;100.00;84007.63;5082443;28;20035;-64
2023/04/17 01:51:56;;;;;;;55.00;23.23;;;;;;;-146.27;100.00;84043.81;5088520;28;20035;-65
2023/04/17 01:54:23;;;;;;;47.42;21.05;;;;;;;-146.27;100.00;83995.56;5080730;28;20468;-65
2023/04/17 01:56:49;;;;;;;54.55;23.33;;;;;;;-146.27;100.00;84001.59;5086108;28;20028;-65
2023/04/17 01:59:14;;;;;;;51.92;22.45;;;;;;;-146.27;100.00;84001.59;5089719;28;20032;-64
2023/04/17 02:01:40;;;;;;;47.67;22.80;;;;;;;-146.27;100.00;84013.66;5091647;28;20035;-65
2023/04/17 02:04:05;;;;;;;54.00;23.20;;;;;;;-146.27;100.00;84015.66;5085984;28;20042;-65
2023/04/17 02:06:31;;;;;;;50.10;21.80;;;;;;;-146.27;100.00;84019.69;5088053;28;20044;-65
2023/04/17 02:08:57;;;;;;;45.53;21.35;;;;;;;-146.27;100.00;84035.75;5084324;28;20027;-64
2023/04/17 02:11:22;;;;;;;48.08;21.80;;;;;;;-146.27;100.00;84021.69;5080707;28;20035;-64
2023/04/17 02:13:48;;;;;;;46.65;22.83;;;;;;;-146.27;100.00;84027.72;5074248;28;20074;-64
2023/04/17 02:16:13;;;;;;;46.55;21.60;;;;;;;-146.27;100.00;84047.81;5075963;28;20020;-66
2023/04/17 02:18:39;;;;;;;48.60;21.90;;;;;;;-146.27;100.00;84031.75;5088181;28;20028;-66
2023/04/17 02:21:05;;;;;;;50.83;22.30;;;;;;;-146.27;100.00;84037.78;5080148;28;20080;-64
2023/04/17 02:23:30;;;;;;;52.22;21.35;;;;;;;-146.27;100.00;84017.69;5088347;28;20099;-65
2023/04/17 02:25:56;;;;;;;52.72;23.20;;;;;;;-146.27;100.00;84003.59;5088620;28;20491;-64
2023/04/17 02:28:21;;;;;;;55.50;23.20;;;;;;;-146.27;100.00;84025.72;5092225;28;20500;-64
2023/04/17 02:30:46;;;;;;;55.97;22.13;;;;;;;-146.27;100.00;84051.84;5077258;28;20024;-64
2023/04/17 02:33:12;;;;;;;51.40;23.77;;;;;;;-146.27;100.00;84003.59;5087428;28;20020;-65
2023/04/17 02:35:37;;;;;;;61.85;24.13;;;;;;;-146.27;100.00;84015.66;5087756;28;20080;-64
2023/04/17 02:38:03;;;;;;;51.92;23.55;;;;;;;-146.27;100.00;83995.56;5082158;28;20024;-66
2023/04/17 02:40:28;;;;;;;55.75;23.10;;;;;;;-146.27;100.00;83991.56;5087880;28;20507;-65
2023/04/17 02:42:53;;;;;;;52.13;24.67;;;;;;;-146.27;100.00;84015.66;5090680;28;20031;-65
2023/04/17 02:45:19;;;;;;;55.45;22.67;;;;;;;-146.27;100.00;84027.72;5090601;28;20030;-64
2023/04/17 02:47:44;;;;;;;48.33;22.10;;;;;;;-146.27;100.00;84035.75;5089621;28;20028;-66
2023/04/17 02:50:10;;;;;;;46.13;21.02;;;;;;;-146.27;100.00;83995.56;5088240;28;20111;-65
2023/04/17 02:52:36;;;;;;;38.20;20.10;;;;;;;-146.27;100.00;83989.53;5091652;28;20407;-65
2023/04/17 02:55:01;;;;;;;47.50;21.15;;;;;;;-146.27;100.00;84019.69;5084044;28;20021;-65
2023/04/17 02:57:26;;;;;;;38.72;20.02;;;;;;;-146.27;100.00;84003.59;5084600;28;20022;-65
2023/04/17 02:59:52;;;;;;;52.90;22.73;;;;;;;-146.27;100.00;84011.66;5090024;28;20126;-65
2023/04/17 03:02:20;;;;;;;53.70;22.40;;;;;;;-146.27;100.00;83999.59;5091372;28;20032;-65
2023/04/17 03:04:50;;;;;;;51.55;23.20;;;;;;;-146.27;100.00;84011.66;5084144;28;20024;-65
2023/04/17 03:07:22;;;;;;;46.95;21.45;;;;;;;-146.27;100.00;84031.75;5095033;28;20082;-65
2023/04/17 03:09:48;;;;;;;54.42;23.20;;;;;;;-146.27;100.00;84005.63;5095536;28;20081;-64
2023/04/17 03:12:14;;;;;;;59.75;23.23;;;;;;;-146.27;100.00;84019.69;5092290;28;20024;-65
2023/04/17 03:14:40;;;;;;;49.10;24.10;;;;;;;-146.27;100.00;84011.66;5094834;28;20194;-64
2023/04/17 03:17:06;;;;;;;48.40;22.50;;;;;;;-146.27;100.00;84019.69;5093745;28;20110;-65
2023/04/17 03:19:31;;;;;;;60.67;23.15;;;;;;;-146.27;100.00;84007.63;5084849;28;20029;-65
2023/04/17 03:21:57;;;;;;;43.95;21.10;;;;;;;-146.27;100.00;84011.66;5089730;28;20050;-66
2023/04/17 03:24:22;;;;;;;44.75;21.33;;;;;;;-146.27;100.00;84017.69;5078728;28;20103;-65
2023/04/17 03:26:47;;;;;;;46.72;20.65;;;;;;;-146.27;100.00;84023.69;5082607;28;20080;-65
2023/04/17 03:29:13;;;;;;;45.30;22.23;;;;;;;-146.27;100.00;84071.94;5090805;28;20020;-66
2023/04/17 03:31:38;;;;;;;54.55;22.08;;;;;;;-146.27;100.00;84051.84;5091675;28;20115;-65
2023/04/17 03:34:03;;;;;;;50.20;23.15;;;;;;;-146.27;100.00;84051.84;5094260;28;20111;-65
2023/04/17 03:36:29;;;;;;;51.40;23.63;;;;;;;-146.27;100.00;84053.84;5091689;28;20108;-64
2023/04/17 03:38:56;;;;;;;47.63;22.13;;;;;;;-146.27;100.00;84015.66;5094606;28;20107;-65
2023/04/17 03:41:22;;;;;;;45.53;21.55;;;;;;;-146.27;100.00;84035.75;5092686;28;20023;-64
2023/04/17 03:43:47;;;;;;;42.85;20.30;;;;;;;-146.27;100.00;84071.94;5091111;28;20074;-65
2023/04/17 03:46:12;;;;;;;46.85;21.50;;;;;;;-146.27;100.00;84045.81;5081030;28;20017;-65
2023/04/17 03:48:38;;;;;;;39.72;19.08;;;;;;;-146.27;100.00;84043.81;5091156;28;20030;-64
2023/04/17 03:51:03;;;;;;;40.67;19.50;;;;;;;-146.27;100.00;84023.69;5088719;28;20024;-64
2023/04/17 03:53:29;;;;;;;41.47;19.25;;;;;;;-146.27;100.00;84049.84;5080524;28;20025;-64
2023/04/17 03:55:55;;;;;;;40.88;19.52;;;;;;;-146.27;100.00;84029.72;5079436;28;20104;-65
2023/04/17 03:58:20;;;;;;;39.70;19.17;;;;;;;-146.27;100.00;84011.66;5090394;28;20119;-65
2023/04/17 04:00:47;;;;;;;37.50;19.58;;;;;;;-146.27;100.00;84013.66;5092669;28;20039;-65
2023/04/17 04:03:12;;;;;;;39.08;19.63;;;;;;;-146.27;100.00;84039.78;5077508;28;20025;-65
2023/04/17 04:05:38;;;;;;;40.67;18.70;;;;;;;-146.27;100.00;84047.81;5082338;28;20467;-64
2023/04/17 04:08:03;;;;;;;42.60;19.65;;;;;;;-146.27;100.00;84011.66;5093540;28;20131;-64
2023/04/17 04:10:29;;;;;;;42.80;20.40;;;;;;;-146.27;100.00;84003.59;5092909;28;20024;-66
2023/04/17 04:12:54;;;;;;;44.78;20.05;;;;;;;-146.27;100.00;84003.59;5084910;28;20024;-66
2023/04/17 04:15:20;;;;;;;43.38;21.98;;;;;;;-146.27;100.00;84039.78;5093631;28;20066;-65
2023/04/17 04:17:45;;;;;;;44.17;19.88;;;;;;;-146.27;100.00;84031.75;5090594;28;20035;-64
2023/04/17 04:20:10;;;;;;;39.90;20.83;;;;;;;-146.27;100.00;84023.69;5093833;28;20032;-66
2023/04/17 04:22:36;;;;;;;51.78;23.08;;;;;;;-146.27;100.00;84051.84;5093408;28;20479;-65
2023/04/17 04:25:01;;;;;;;44.20;22.13;;;;;;;-146.27;100.00;84015.66;5088075;28;20017;-65
2023/04/17 04:27:31;;;;;;;49.75;22.05;;;;;;;-146.27;100.00;84001.59;5092937;28;20051;-66
2023/04/17 04:29:57;;;;;;;51.58;23.45;;;;;;;-146.27;100.00;83991.56;5090939;28;20032;-66
2023/04/17 04:32:24;;;;;;;53.00;22.77;;;;;;;-146.27;100.00;83999.59;5085720;28;20026;-65
2023/04/17 04:34:50;;;;;;;56.80;24.20;;;;;;;-146.27;100.00;84031.75;5092328;28;20054;-65
2023/04/17 04:37:16;;;;;;;56.45;21.70;;;;;;;-146.27;100.00;83987.53;5091952;28;20020;-64
2023/04/17 04:39:42;;;;;;;52.03;23.80;;;;;;;-146.27;100.00;84017.69;5089013;28;20097;-64
2023/04/17 04:42:08;;;;;;;53.55;23.35;;;;;;;-146.27;100.00;84019.69;5086440;28;20020;-66
2023/04/17 04:44:36;;;;;;;60.17;24.42;;;;;;;-146.27;100.00;84079.97;5091047;28;20016;-65
2023/04/17 04:47:01;;;;;;;60.17;24.27;;;;;;;-146.27;100.00;84027.72;5091770;28;20450;-65
2023/04/17 04:49:26;;;;;;;50.92;22.10;;;;;;;-146.27;100.00;84023.69;5086271;28;20028;-64
2023/04/17 04:51:52;;;;;;;55.33;21.98;;;;;;;-146.27;100.00;83999.59;5091958;28;20028;-65
2023/04/17 04:54:17;;;;;;;55.40;23.23;;;;;;;-146.27;100.00;84003.59;5093198;28;20046;-64
2023/04/17 04:56:43;;;;;;;52.25;23.75;;;;;;;-146.27;100.00;84011.66;5087064;28;20027;-64
2023/04/17 04:59:09;;;;;;;51.30;22.58;;;;;;;-146.27;100.00;84069.94;5092840;28;20047;-66
2023/04/17 05:01:35;;;;;;;54.47;23.48;;;;;;;-146.27;100.00;84037.78;5086096;28;20035;-66
2023/04/17 05:04:00;;;;;;;53.80;22.35;;;;;;;-146.27;100.00;84035.75;5090713;28;20024;-64
2023/04/17 05:06:26;;;;;;;52.22;23.73;;;;;;;-146.27;100.00;84019.69;5090086;28;20040;-65
2023/04/17 05:08:52;;;;;;;53.25;24.08;;;;;;;-146.27;100.00;84027.72;5091746;28;20030;-65
2023/04/17 05:11:17;;;;;;;56.75;22.95;;;;;;;-146.27;100.00;83997.56;5091375;28;20443;-66
2023/04/17 05:13:43;;;;;;;51.80;23.63;;;;;;;-146.27;100.00;84015.66;5089075;28;20028;-65
2023/04/17 05:16:08;;;;;;;50.65;22.42;;;;;;;-146.27;100.00;83995.56;5084341;28;20107;-66
2023/04/17 05:18:33;;;;;;;50.97;22.90;;;;;;;-146.27;100.00;84015.66;5088692;28;20019;-66
2023/04/17 05:20:59;;;;;;;52.50;21.88;;;;;;;-146.27;100.00;84049.84;5092202;28;20537;-65
2023/04/17 05:23:24;;;;;;;49.53;22.50;;;;;;;-146.27;100.00;84015.66;5088838;28;20085;-66
2023/04/17 05:25:50;;;;;;;53.33;22.52;;;;;;;-146.27;100.00;84055.84;5089440;28;20094;-66
2023/04/17 05:28:15;;;;;;;49.75;22.98;;;;;;;-146.27;100.00;83997.56;5089265;28;20028;-67
2023/04/17 05:30:40;;;;;;;53.90;23.42;;;;;;;-146.27;100.00;83989.53;5088987;28;20036;-65
2023/04/17 05:33:06;;;;;;;45.15;21.77;;;;;;;-146.27;100.00;83981.50;5091928;28;20055;-67
2023/04/17 05:35:32;;;;;;;49.63;23.33;;;;;;;-146.27;100.00;84013.66;5092386;28;20376;-67
2023/04/17 05:37:57;;;;;;;47.85;21.45;;;;;;;-146.27;100.00;83987.53;5092689;28;20024;-67
2023/04/17 05:40:22;;;;;;;59.00;23.15;;;;;;;-146.27;100.00;83999.59;5087834;28;20368;-65
2023/04/17 05:42:48;;;;;;;44.63;22.50;;;;;;;-146.27;100.00;84007.63;5085070;28;20103;-64
2023/04/17 05:45:14;;;;;;;48.17;24.40;;;;;;;-146.27;100.00;84003.59;5083222;28;20020;-66
2023/04/17 05:47:40;;;;;;;47.97;22.10;;;;;;;-146.27;100.00;83985.53;5082269;28;20016;-65
2023/04/17 05:50:07;;;;;;;50.35;21.77;;;;;;;-146.27;100.00;83969.44;5087391;28;20073;-65
2023/04/17 05:52:33;;;;;;;44.20;21.90;;;;;;;-146.27;100.00;83953.38;5088557;28;20352;-64
2023/04/17 05:54:58;;;;;;;43.97;22.15;;;;;;;-146.27;100.00;83979.50;5085276;28;20054;-66
2023/04/17 05:57:23;;;;;;;45.90;21.08;;;;;;;-146.27;100.00;83955.38;5072877;28;20078;-65
2023/04/17 05:59:49;;;;;;;44.60;21.38;;;;;;;-146.27;100.00;83975.47;5089606;28;20059;-65
2023/04/17 06:02:15;;;;;;;47.83;21.95;;;;;;;-146.27;100.00;83951.34;5087686;28;20372;-65
2023/04/17 06:04:41;;;;;;;43.03;20.52;;;;;;;-146.27;100.00;83927.25;5089300;28;20529;-65
2023/04/17 06:07:07;;;;;;;43.33;21.13;;;;;;;-146.27;100.00;83963.41;5087374;28;20040;-65
2023/04/17 06:09:33;;;;;;;47.95;21.55;;;;;;;-146.27;100.00;83927.25;5086513;28;20464;-64
2023/04/17 06:11:58;;;;;;;44.70;21.63;;;;;;;-146.27;100.00;83935.28;5072698;28;20031;-66
2023/04/17 06:14:24;;;;;;;37.38;20.15;;;;;;;-146.27;100.00;83911.16;5082838;28;20040;-66
2023/04/17 06:16:49;;;;;;;43.92;21.15;;;;;;;-146.27;100.00;83927.25;5086962;28;20020;-66
2023/04/17 06:19:14;;;;;;;31.90;17.63;;;;;;;-146.27;100.00;83961.41;5084008;28;20046;-66
2023/04/17 06:21:40;;;;;;;32.10;18.00;;;;;;;-146.27;100.00;83935.28;5084964;28;20434;-65
2023/04/17 06:24:06;;;;;;;31.40;18.48;;;;;;;-146.27;100.00;83925.22;5090629;28;20078;-65
2023/04/17 06:26:31;;;;;;;35.17;17.50;;;;;;;-146.27;100.00;84023.69;5085366;28;20396;-66
2023/04/17 06:28:56;;;;;;;31.77;17.67;;;;;;;-146.27;100.00;83939.31;5091606;28;20060;-66
2023/04/17 06:31:22;;;;;;;32.65;18.48;;;;;;;-146.27;100.00;83907.16;5089866;28;20149;-68
2023/04/17 06:33:48;;;;;;;33.10;17.17;;;;;;;-146.27;100.00;83899.09;5090436;28;20056;-68
2023/04/17 06:36:14;;;;;;;35.17;18.23;;;;;;;-146.27;100.00;83895.09;5086969;28;20539;-67
2023/04/17 06:38:40;;;;;;;36.60;18.75;;;;;;;-146.27;100.00;83881.03;5087490;28;20155;-67
2023/04/17 06:41:05;;;;;;;36.20;18.77;;;;;;;-146.27;100.00;83887.06;5079943;28;20035;-68
2023/04/17 06:43:30;;;;;;;37.63;18.08;;;;;;;-146.27;100.00;83870.97;5076704;28;20058;-68
2023/04/17 06:45:56;;;;;;;37.67;19.02;;;;;;;-146.27;100.00;83858.91;5071468;28;20082;-67
2023/04/17 06:48:21;;;;;;;34.63;17.33;;;;;;;-146.27;100.00;83915.19;5076877;28;20028;-68
2023/04/17 06:50:47;;;;;;;32.58;17.70;;;;;;;-146.27;100.00;83875.00;5074806;28;20452;-68
2023/04/17 06:53:12;;;;;;;32.35;18.98;;;;;;;-146.27;100.00;83870.97;5087981;28;20038;-67
2023/04/17 06:55:38;;;;;;;31.15;17.83;;;;;;;-146.27;100.00;83911.16;5087648;28;20032;-66
2023/04/17 06:58:03;;;;;;;32.53;18.85;;;;;;;-146.27;100.00;83854.91;5091479;28;20081;-67
2023/04/17 07:00:29;;;;;;;34.10;18.65;;;;;;;-146.27;100.00;83887.06;5085182;28;20679;-66
2023/04/17 07:02:54;;;;;;;32.78;19.13;;;;;;;-146.27;100.00;83872.97;5089172;28;20024;-67
2023/04/17 07:05:20;;;;;;;33.17;19.02;;;;;;;-146.27;100.00;83870.97;5088787;28;20066;-67
2023/04/17 07:07:45;;;;;;;43.78;20.17;;;;;;;-146.27;100.00;83818.72;5089668;28;20471;-67
2023/04/17 07:10:11;;;;;;;36.80;19.33;;;;;;;-146.27;100.00;83866.97;5088438;28;20066;-68
2023/04/17 07:12:36;;;;;;;30.27;18.70;;;;;;;-146.27;100.00;83828.78;5087522;28;20152;-67
2023/04/17 07:15:02;;;;;;;35.08;19.88;;;;;;;-146.27;100.00;83826.75;5090011;28;20035;-67
2023/04/17 07:17:27;;;;;;;38.13;20.38;;;;;;;-146.27;100.00;83838.81;5086175;28;20032;-66
2023/04/17 07:19:53;;;;;;;42.28;22.15;;;;;;;-146.27;100.00;83818.72;5077690;28;20024;-66
2023/04/17 07:22:18;;;;;;;40.83;21.98;;;;;;;-146.27;100.00;83850.88;5087596;28;20024;-67
2023/04/17 07:24:43;;;;;;;41.88;22.73;;;;;;;-146.27;100.00;83800.63;5091508;28;20012;-68
2023/04/17 07:27:09;;;;;;;43.22;21.63;;;;;;;-146.27;100.00;83830.78;5090210;28;20115;-69
2023/04/17 07:29:35;;;;;;;38.85;21.85;;;;;;;-146.27;100.00;83850.88;5089950;28;20475;-67
2023/04/17 07:32:01;;;;;;;43.13;21.85;;;;;;;-146.27;100.00;83794.63;5090513;28;20028;-67
2023/04/17 07:34:29;;;;;;;41.50;21.88;;;;;;;-146.27;100.00;83794.63;5086375;28;20479;-67
2023/04/17 07:36:55;;;;;;;40.40;21.33;;;;;;;-146.27;100.00;83766.47;5089684;28;20364;-67
2023/04/17 07:39:21;;;;;;;40.78;21.90;;;;;;;-146.27;100.00;83786.56;5090517;28;20039;-66
2023/04/17 07:41:48;;;;;;;42.00;23.05;;;;;;;-146.27;100.00;83814.72;5089835;28;20081;-67
2023/04/17 07:44:13;;;;;;;42.83;22.80;;;;;;;-146.27;100.00;83788.59;5089772;28;20020;-67
2023/04/17 07:46:38;;;;;;;42.88;22.60;;;;;;;-146.27;100.00;83794.63;5089355;28;20433;-67
2023/04/17 07:49:04;;;;;;;40.72;22.17;;;;;;;-146.27;100.00;83784.56;5090886;28;20459;-66
2023/04/17 07:51:30;;;;;;;41.55;21.77;;;;;;;-146.27;100.00;83780.53;5089861;28;20051;-67
2023/04/17 07:53:55;;;;;;;37.65;20.00;;;;;;;-146.27;100.00;83802.66;5092343;28;20052;-67
2023/04/17 07:56:21;;;;;;;34.55;19.20;;;;;;;-146.27;100.00;83812.69;5094459;28;20071;-67
2023/04/17 07:58:50;;;;;;;34.70;19.20;;;;;;;-146.27;100.00;83798.63;5091336;28;20032;-67
2023/04/17 08:01:16;;;;;;;34.33;19.35;;;;;;;-146.27;100.00;83802.66;5091764;28;20032;-67
2023/04/17 08:03:43;;;;;;;36.35;19.42;;;;;;;-146.27;100.00;83808.69;5090965;28;20498;-67
2023/04/17 08:06:09;;;;;;;38.75;20.38;;;;;;;-146.27;100.00;83772.50;5084425;28;20027;-67
2023/04/17 08:08:35;;;;;;;35.47;20.90;;;;;;;-146.27;100.00;83794.63;5094703;28;20481;-67
2023/04/17 08:11:00;;;;;;;37.80;20.48;;;;;;;-146.27;100.00;83794.63;5094615;28;20150;-68
2023/04/17 08:13:26;;;;;;;40.08;20.83;;;;;;;-146.27;100.00;83814.72;5093097;28;20020;-68
2023/04/17 08:15:53;;;;;;;36.60;20.52;;;;;;;-146.27;100.00;83794.63;5092638;28;20023;-67
2023/04/17 08:18:19;;;;;;;36.17;19.95;;;;;;;-146.27;100.00;83786.56;5083204;28;20024;-66
2023/04/17 08:20:44;;;;;;;34.53;19.83;;;;;;;-146.27;100.00;83810.69;5094054;28;20349;-67
2023/04/17 08:23:09;;;;;;;42.70;20.73;;;;;;;-146.27;100.00;83770.50;5093753;28;20036;-67
2023/04/17 08:25:35;;;;;;;38.58;20.25;;;;;;;-146.27;100.00;83774.53;5092082;28;20047;-67
2023/04/17 08:28:00;;;;;;;40.47;20.88;;;;;;;-146.27;100.00;83724.28;5091627;28;20074;-67
2023/04/17 08:30:26;;;;;;;37.88;19.98;;;;;;;-146.27;100.00;83774.53;5087317;28;20024;-68
2023/04/17 08:32:51;;;;;;;32.85;19.23;;;;;;;-146.27;100.00;83724.28;5090666;28;20063;-69
2023/04/17 08:35:16;;;;;;;35.28;19.15;;;;;;;-146.27;100.00;83752.41;5084954;28;20055;-64
2023/04/17 08:37:45;;;;;;;41.83;20.13;;;;;;;-146.27;100.00;83758.44;5081875;28;20036;-66
2023/04/17 08:40:12;;;;;;;35.63;20.30;;;;;;;-146.27;100.00;83730.31;5083917;28;20035;-65
2023/04/17 08:42:40;;;;;;;40.10;20.30;;;;;;;-146.27;100.00;83686.09;5093802;28;20090;-65
2023/04/17 08:45:09;;;;;;;45.83;21.33;;;;;;;-146.27;100.00;83696.16;5091443;28;20020;-66
2023/04/17 08:47:35;;;;;;;36.13;19.40;;;;;;;-146.27;100.00;83682.09;5093339;28;20028;-64
2023/04/17 08:50:08;;;;;;;44.33;20.02;;;;;;;-146.27;100.00;83680.06;5092731;28;20041;-66
2023/04/17 08:52:41;;;;;;;36.20;19.97;;;;;;;-146.27;100.00;83674.03;5093637;28;20081;-65
2023/04/17 08:55:07;;;;;;;38.30;20.05;;;;;;;-146.27;100.00;83659.97;5093640;28;20059;-65
2023/04/17 08:57:32;;;;;;;45.25;19.02;;;;;;;-146.27;100.00;83647.91;5093705;28;20024;-65
2023/04/17 08:59:59;;;;;;;36.45;20.40;;;;;;;-146.27;100.00;83678.06;5084511;28;20388;-65
2023/04/17 09:02:24;;;;;;;36.80;19.10;;;;;;;-146.27;100.00;83645.91;5077071;28;20373;-65
2023/04/17 09:04:49;;;;;;;38.88;19.00;;;;;;;-146.27;100.00;83589.66;5085477;28;20020;-65
2023/04/17 09:07:15;;;;;;;35.40;18.67;;;;;;;-146.27;100.00;83589.66;5073174;28;20103;-66
2023/04/17 09:09:51;;;;;;;34.40;19.70;;;;;;;-146.27;100.00;83607.72;5073478;28;20061;-65
2023/04/17 09:12:23;;;;;;;35.15;17.90;;;;;;;-146.27;100.00;83589.66;5086666;28;20110;-66
2023/04/17 09:14:49;;;;;;;32.85;18.13;;;;;;;-146.27;100.00;83581.59;5079563;28;20066;-67
2023/04/17 09:17:16;;;;;;;31.55;18.10;;;;;;;-146.27;100.00;83581.59;5081842;28;20115;-64
2023/04/17 09:20:06;;;;;;;32.83;18.52;;;;;;;-146.27;100.00;83551.47;5088893;28;20483;-67
2023/04/17 09:22:32;;;;;;;32.95;18.95;;;;;;;-146.27;100.00;83525.34;5072429;28;20028;-68
2023/04/17 09:24:58;;;;;;;34.45;19.80;;;;;;;-146.27;100.00;83567.53;5076973;28;20047;-67
2023/04/17 09:27:25;;;;;;;30.58;17.52;;;;;;;-146.27;100.00;83529.38;5075830;28;20020;-68
2023/04/17 09:30:02;;;;;;;34.83;18.42;;;;;;;-146.27;100.00;83553.47;5085629;28;20047;-67
2023/04/17 09:32:30;;;;;;;33.25;19.02;;;;;;;-146.27;100.00;83491.19;5088945;28;20333;-67
2023/04/17 09:35:00;;;;;;;34.70;18.60;;;;;;;-146.27;100.00;83465.06;5077385;28;20046;-67
2023/04/17 09:37:47;;;;;;;33.40;18.55;;;;;;;-146.27;100.00;83483.16;5086721;28;20058;-69
2023/04/17 09:40:12;;;;;;;38.22;18.77;;;;;;;-146.27;100.00;83539.41;5092823;28;20032;-69
2023/04/17 09:43:02;;;;;;;32.30;17.95;;;;;;;-146.27;100.00;83473.09;5091570;28;20495;-67
2023/04/17 09:45:34;;;;;;;28.67;18.45;;;;;;;-146.27;100.00;83485.16;5086952;28;20434;-68
2023/04/17 09:48:00;;;;;;;29.50;18.25;;;;;;;-146.27;100.00;83493.19;5085720;28;21675;-68
2023/04/17 09:50:26;;;;;;;31.00;18.08;;;;;;;-146.27;100.00;83469.09;5079841;28;20537;-67
2023/04/17 09:52:52;;;;;;;29.23;17.17;;;;;;;-146.27;100.00;83438.94;5092899;28;20036;-69
2023/04/17 09:55:22;;;;;;;29.42;17.50;;;;;;;-146.27;100.00;83521.34;5092675;28;20027;-66
2023/04/17 09:57:53;;;;;;;28.58;17.90;;;;;;;-146.27;100.00;83392.72;5079035;28;20111;-68
2023/04/17 10:00:20;;;;;;;27.85;16.65;;;;;;;-146.27;100.00;83473.09;5072038;28;20039;-68
2023/04/17 10:02:50;;;;;;;32.58;17.60;;;;;;;-146.27;100.00;83396.75;5075614;28;20020;-67
2023/04/17 10:05:42;;;;;;;30.92;17.77;;;;;;;-146.27;100.00;83380.69;5072643;28;20062;-69
2023/04/17 10:08:07;;;;;;;29.08;16.13;;;;;;;-146.27;100.00;83394.75;5069863;28;20055;-68
2023/04/17 10:10:35;;;;;;;34.90;17.77;;;;;;;-146.27;100.00;83282.22;5075586;28;20028;-68
2023/04/17 10:13:02;;;;;;;28.27;16.45;;;;;;;-146.27;99.44;83288.25;5089829;28;20552;-68
2023/04/17 10:15:29;;;;;;;27.50;16.23;;;;;;;-146.27;96.39;83227.97;5091383;28;20027;-67
2023/04/17 10:18:15;;;;;;;28.38;15.60;;;;;;;-146.27;96.22;83159.66;5090678;28;20038;-67
2023/04/17 10:20:43;;;;;;;32.67;17.08;;;;;;;-146.27;96.23;83159.66;5088126;28;20536;-67
2023/04/17 10:23:32;;;;;;;30.52;16.60;;;;;;;-146.27;95.74;83157.66;5080432;28;20492;-68
2023/04/17 10:26:25;;;;;;;25.70;16.08;;;;;;;-146.27;95.60;83211.91;5090689;28;20189;-67
2023/04/17 10:28:52;;;;;;;27.25;16.92;;;;;;;-146.27;97.17;83151.63;5073081;28;20031;-67
2023/04/17 10:31:19;;;;;;;32.25;16.35;;;;;;;-146.27;95.55;83135.53;5089564;28;20093;-66
2023/04/17 10:33:53;;;;;;;26.58;16.02;;;;;;;-146.27;93.90;83135.53;5084147;28;20055;-67
2023/04/17 10:36:36;;;;;;;31.25;17.27;;;;;;;-146.27;93.11;83107.41;5084356;28;20032;-66
2023/04/17 10:39:22;;;;;;;28.55;16.30;;;;;;;-146.27;94.56;83171.72;5092067;28;20032;-68
2023/04/17 10:42:05;;;;;;;25.10;16.05;;;;;;;-146.27;95.73;83223.94;5089668;28;20128;-68
2023/04/17 10:44:43;;;;;;;23.75;14.55;;;;;;;-146.27;94.39;83207.88;5079676;28;20059;-67
2023/04/17 10:47:10;;;;;;;31.55;17.17;;;;;;;-146.27;95.55;83157.66;5071051;28;20028;-66
2023/04/17 10:49:52;;;;;;;23.33;15.07;;;;;;;-146.27;92.42;83103.41;5071953;28;20077;-67
2023/04/17 10:52:43;;;;;;;25.58;16.27;;;;;;;-146.27;90.80;83081.31;5083997;28;20051;-67